Time;durP1;ratioP1;P1;durP2;ratioP2;P2;SDS_P1;SDS_P2;PMS_P1;PMS_P2;Temp;Humidity;BMP_temperature;BMP_pressure;BME280_temperature;BME280_humidity;BME280_pressure;Samples;Min_cycle;Max_cycle;Signal;HPM_P1;HPM_P2
2023/08/20 00:01:06;;;;;;;1.13;1.00;;;;;;;25.19;62.99;99564.31;5050750;28;20580;-66
2023/08/20 00:03:33;;;;;;;1.57;1.47;;;;;;;25.14;62.59;99563.91;5049858;28;20276;-67
2023/08/20 00:06:00;;;;;;;1.20;1.10;;;;;;;24.99;63.11;99556.38;5050574;28;20196;-66
2023/08/20 00:08:27;;;;;;;1.07;1.07;;;;;;;24.93;63.20;99556.09;5050009;28;20206;-66
2023/08/20 00:10:54;;;;;;;1.47;1.10;;;;;;;24.81;63.93;99551.88;5050419;28;20631;-66
2023/08/20 00:13:22;;;;;;;1.00;1.00;;;;;;;24.64;64.70;99550.72;5050175;28;20242;-66
2023/08/20 00:15:49;;;;;;;1.00;1.00;;;;;;;24.60;64.66;99544.06;5050200;28;20672;-66
2023/08/20 00:18:16;;;;;;;1.63;1.30;;;;;;;24.55;65.04;99541.00;5049865;28;20601;-66
2023/08/20 00:20:45;;;;;;;1.20;1.20;;;;;;;24.55;65.25;99549.72;5050376;28;20216;-66
2023/08/20 00:23:12;;;;;;;0.83;0.83;;;;;;;24.46;65.46;99544.41;5049794;28;20232;-66
2023/08/20 00:25:40;;;;;;;1.60;1.50;;;;;;;24.39;66.12;99538.03;5050373;28;20205;-67
2023/08/20 00:28:06;;;;;;;1.17;1.13;;;;;;;24.38;65.98;99533.75;5050003;28;20695;-66
2023/08/20 00:30:34;;;;;;;6.90;1.20;;;;;;;24.36;66.29;99535.69;5050293;28;20251;-66
2023/08/20 00:33:02;;;;;;;1.00;1.00;;;;;;;24.26;66.20;99540.03;5049828;28;20631;-67
2023/08/20 00:35:28;;;;;;;1.13;1.10;;;;;;;24.09;66.88;99522.25;5049479;28;20196;-67
2023/08/20 00:37:55;;;;;;;1.07;0.93;;;;;;;24.10;67.30;99534.38;5049871;28;20646;-66
2023/08/20 00:40:22;;;;;;;0.70;0.70;;;;;;;24.04;67.96;99540.94;5049497;28;20213;-66
2023/08/20 00:42:49;;;;;;;1.23;1.23;;;;;;;23.93;68.55;99539.25;5049567;28;20192;-66
2023/08/20 00:45:16;;;;;;;6.80;1.37;;;;;;;23.83;68.88;99538.34;5049612;28;20203;-66
2023/08/20 00:47:44;;;;;;;1.47;1.33;;;;;;;23.76;69.45;99539.78;5050032;28;20205;-66
2023/08/20 00:50:12;;;;;;;1.40;1.40;;;;;;;23.81;69.55;99529.75;5049319;28;20209;-66
2023/08/20 00:52:39;;;;;;;1.23;1.20;;;;;;;23.81;70.06;99535.00;5049888;28;20200;-66
2023/08/20 00:55:09;;;;;;;1.50;1.40;;;;;;;23.85;69.94;99525.09;5049923;28;20665;-66
2023/08/20 00:57:36;;;;;;;1.90;1.10;;;;;;;23.95;69.82;99539.09;5049061;28;20200;-67
2023/08/20 01:00:07;;;;;;;0.90;0.90;;;;;;;24.02;69.57;99528.00;5049690;28;20207;-66
2023/08/20 01:02:34;;;;;;;1.03;0.90;;;;;;;24.11;68.92;99528.16;5049772;28;20581;-66
2023/08/20 01:05:06;;;;;;;1.23;1.23;;;;;;;24.13;68.89;99526.31;5049740;28;20211;-66
2023/08/20 01:07:48;;;;;;;1.23;1.23;;;;;;;24.09;69.08;99522.25;5048218;28;20197;-66
2023/08/20 01:10:22;;;;;;;1.43;1.33;;;;;;;24.09;68.93;99523.06;5049744;28;20205;-66
2023/08/20 01:12:50;;;;;;;1.17;1.17;;;;;;;24.15;69.40;99521.75;5047749;28;20635;-67
2023/08/20 01:15:17;;;;;;;1.30;1.20;;;;;;;24.19;69.27;99517.94;5049240;28;20672;-66
2023/08/20 01:17:45;;;;;;;1.77;1.67;;;;;;;24.22;68.73;99517.66;5049898;28;20201;-67
2023/08/20 01:20:15;;;;;;;2.10;1.63;;;;;;;24.25;69.26;99520.03;5049476;28;20201;-66
2023/08/20 01:23:06;;;;;;;1.53;1.50;;;;;;;24.24;69.42;99515.72;5049527;28;20263;-66
2023/08/20 01:25:47;;;;;;;1.10;1.00;;;;;;;24.23;69.33;99508.84;5049543;28;20197;-67
2023/08/20 01:28:33;;;;;;;1.07;1.07;;;;;;;24.26;69.02;99508.59;5049115;28;20307;-66
2023/08/20 01:31:02;;;;;;;1.30;1.30;;;;;;;24.26;69.76;99512.06;5049619;28;20207;-66
2023/08/20 01:33:30;;;;;;;1.63;1.53;;;;;;;24.28;69.65;99511.91;5049502;28;20203;-66
2023/08/20 01:35:56;;;;;;;1.20;1.20;;;;;;;24.25;69.63;99513.00;5049409;28;20262;-66
2023/08/20 01:38:23;;;;;;;2.80;1.77;;;;;;;24.13;70.10;99514.03;5049012;28;20201;-66
2023/08/20 01:40:50;;;;;;;5.23;1.53;;;;;;;24.02;70.10;99507.03;5049707;28;20746;-66
2023/08/20 01:43:17;;;;;;;3.30;1.60;;;;;;;23.97;70.56;99509.19;5048877;28;20247;-66
2023/08/20 01:45:45;;;;;;;2.23;1.57;;;;;;;23.94;71.25;99501.59;5047084;28;20735;-66
2023/08/20 01:48:12;;;;;;;1.23;1.23;;;;;;;23.89;71.33;99503.78;5051121;28;20730;-66
2023/08/20 01:50:38;;;;;;;1.33;1.30;;;;;;;23.88;71.44;99496.03;5052919;28;20197;-66
2023/08/20 01:53:05;;;;;;;1.43;1.40;;;;;;;23.88;71.59;99494.25;5052510;28;20193;-66
2023/08/20 01:55:32;;;;;;;1.70;1.60;;;;;;;23.87;71.43;99490.00;5053160;28;20649;-66
2023/08/20 01:57:59;;;;;;;2.20;1.97;;;;;;;23.88;71.81;99494.25;5053058;28;20254;-67
2023/08/20 02:00:26;;;;;;;1.63;1.53;;;;;;;23.88;71.88;99491.63;5052537;28;20204;-66
2023/08/20 02:02:54;;;;;;;1.57;1.47;;;;;;;23.88;71.90;99493.44;5052726;28;20209;-66
2023/08/20 02:05:21;;;;;;;1.33;1.30;;;;;;;23.86;72.01;99496.19;5052725;28;20631;-66
2023/08/20 02:07:48;;;;;;;1.60;1.50;;;;;;;23.86;72.16;99501.44;5052701;28;20200;-66
2023/08/20 02:10:15;;;;;;;0.93;0.93;;;;;;;23.81;71.61;99498.34;5052559;28;20201;-67
2023/08/20 02:12:42;;;;;;;1.47;1.37;;;;;;;23.76;71.60;99490.06;5052457;28;20193;-66
2023/08/20 02:15:09;;;;;;;3.60;1.67;;;;;;;23.76;71.85;99495.28;5052298;28;20239;-66
2023/08/20 02:17:37;;;;;;;1.27;1.23;;;;;;;23.74;72.31;99494.59;5052517;28;20208;-67
2023/08/20 02:20:06;;;;;;;1.77;1.67;;;;;;;23.74;72.57;99493.75;5052259;28;20196;-66
2023/08/20 02:22:34;;;;;;;1.67;1.57;;;;;;;23.75;72.38;99496.22;5051537;28;20319;-66
2023/08/20 02:25:01;;;;;;;1.83;1.50;;;;;;;23.75;72.70;99496.22;5051723;28;20201;-66
2023/08/20 02:27:27;;;;;;;3.17;2.30;;;;;;;23.75;72.61;99493.63;5051981;28;20205;-67
2023/08/20 02:29:54;;;;;;;1.43;1.43;;;;;;;23.76;71.91;99494.44;5052744;28;20603;-66
2023/08/20 02:32:21;;;;;;;1.50;1.23;;;;;;;23.77;72.04;99496.13;5051842;28;20189;-66
2023/08/20 02:34:50;;;;;;;1.53;1.43;;;;;;;23.76;72.28;99497.91;5052196;28;20196;-66
2023/08/20 02:37:18;;;;;;;1.60;1.50;;;;;;;23.74;72.19;99497.22;5052122;28;20605;-66
2023/08/20 02:39:44;;;;;;;1.33;1.10;;;;;;;23.73;72.29;99498.16;5052208;28;20200;-66
2023/08/20 02:42:11;;;;;;;1.20;1.20;;;;;;;23.64;72.31;99490.25;5051398;28;20208;-66
2023/08/20 02:44:38;;;;;;;1.50;1.40;;;;;;;23.59;73.02;99498.47;5052184;28;20681;-66
2023/08/20 02:47:05;;;;;;;1.30;1.20;;;;;;;23.49;72.80;99508.00;5051581;28;20200;-66
2023/08/20 02:49:31;;;;;;;1.40;1.30;;;;;;;23.43;73.31;99500.66;5050968;28;20248;-66
2023/08/20 02:51:58;;;;;;;1.47;1.10;;;;;;;23.17;73.11;99465.28;5051821;28;20196;-66
2023/08/20 02:54:26;;;;;;;1.90;1.80;;;;;;;23.39;73.49;99505.28;5051980;28;20197;-66
2023/08/20 02:56:53;;;;;;;3.23;1.40;;;;;;;23.37;73.49;99508.97;5051738;28;20240;-66
2023/08/20 02:59:20;;;;;;;1.10;1.10;;;;;;;23.36;74.22;99504.72;5050770;28;20208;-66
2023/08/20 03:01:46;;;;;;;1.80;1.70;;;;;;;23.35;74.24;99510.91;5051842;28;20221;-66
2023/08/20 03:04:13;;;;;;;1.23;1.23;;;;;;;23.35;74.16;99513.53;5051566;28;20262;-66
2023/08/20 03:06:40;;;;;;;1.23;1.13;;;;;;;23.28;74.28;99509.72;5051819;28;20664;-66
2023/08/20 03:09:07;;;;;;;2.30;2.10;;;;;;;23.18;73.96;99487.88;5051299;28;20251;-66
2023/08/20 03:11:35;;;;;;;1.63;1.53;;;;;;;23.26;74.42;99506.41;5051707;28;20685;-66
2023/08/20 03:14:02;;;;;;;1.27;1.27;;;;;;;23.26;74.38;99503.81;5050942;28;20251;-66
2023/08/20 03:16:28;;;;;;;5.17;1.40;;;;;;;23.27;74.81;99505.44;5050963;28;20207;-67
2023/08/20 03:18:55;;;;;;;1.03;1.00;;;;;;;23.30;74.41;99510.44;5051555;28;20201;-66
2023/08/20 03:21:22;;;;;;;3.97;1.60;;;;;;;23.33;74.19;99512.78;5050788;28;21409;-66
2023/08/20 03:23:48;;;;;;;1.00;1.00;;;;;;;23.30;74.52;99503.41;5050379;28;20224;-66
2023/08/20 03:26:15;;;;;;;0.87;0.80;;;;;;;23.30;74.39;99508.66;5050856;28;20262;-66
2023/08/20 03:28:43;;;;;;;1.37;1.27;;;;;;;23.31;74.64;99514.72;5051135;28;20196;-66
2023/08/20 03:31:10;;;;;;;1.07;1.07;;;;;;;23.31;74.72;99509.47;5051038;28;20200;-66
2023/08/20 03:33:36;;;;;;;2.83;1.10;;;;;;;23.32;75.13;99512.00;5051001;28;20193;-66
2023/08/20 03:36:03;;;;;;;1.70;1.00;;;;;;;23.32;74.99;99516.38;5050882;28;20251;-66
2023/08/20 03:38:30;;;;;;;1.23;1.13;;;;;;;23.34;75.11;99509.22;5050790;28;20657;-66
2023/08/20 03:40:57;;;;;;;1.23;1.10;;;;;;;23.36;75.05;99507.34;5050922;28;20205;-66
2023/08/20 03:43:24;;;;;;;1.47;1.37;;;;;;;23.39;74.75;99507.91;5050601;28;20639;-66
2023/08/20 03:45:53;;;;;;;1.53;1.53;;;;;;;23.40;75.04;99506.16;5051026;28;20256;-66
2023/08/20 03:48:20;;;;;;;7.03;1.40;;;;;;;23.40;74.09;99508.75;5050598;28;20635;-66
2023/08/20 03:50:47;;;;;;;1.50;1.40;;;;;;;23.38;74.08;99518.50;5050852;28;20197;-66
2023/08/20 03:53:14;;;;;;;0.80;0.80;;;;;;;23.40;74.52;99520.06;5050557;28;20204;-66
2023/08/20 03:55:41;;;;;;;1.27;1.17;;;;;;;23.42;74.42;99523.41;5050410;28;20204;-66
2023/08/20 03:58:08;;;;;;;0.90;0.90;;;;;;;23.44;74.61;99523.28;5050264;28;20197;-66
2023/08/20 04:00:35;;;;;;;1.20;1.10;;;;;;;23.39;74.77;99512.31;5050566;28;20204;-66
2023/08/20 04:03:04;;;;;;;1.13;1.13;;;;;;;23.48;74.74;99522.06;5050447;28;20696;-66
2023/08/20 04:05:36;;;;;;;0.90;0.90;;;;;;;23.48;74.69;99522.06;5050556;28;20681;-67
2023/08/20 04:08:03;;;;;;;1.20;1.20;;;;;;;23.49;74.19;99521.09;5049915;28;20193;-66
2023/08/20 04:10:29;;;;;;;1.00;1.00;;;;;;;23.45;74.54;99519.72;5049593;28;20209;-66
2023/08/20 04:12:56;;;;;;;1.80;1.50;;;;;;;23.41;75.04;99518.28;5049836;28;20262;-66
2023/08/20 04:15:23;;;;;;;1.00;1.00;;;;;;;23.35;75.32;99516.97;5050211;28;20756;-66
2023/08/20 04:17:49;;;;;;;1.27;1.17;;;;;;;23.27;75.78;99513.28;5050237;28;20259;-67
2023/08/20 04:20:18;;;;;;;1.17;1.07;;;;;;;23.16;76.80;99521.19;5050092;28;20258;-66
2023/08/20 04:22:44;;;;;;;1.20;1.10;;;;;;;23.12;77.01;99514.53;5049867;28;20224;-66
2023/08/20 04:25:12;;;;;;;2.97;1.87;;;;;;;23.07;77.42;99525.34;5049631;28;20204;-66
2023/08/20 04:27:39;;;;;;;1.47;1.43;;;;;;;23.03;77.89;99526.56;5050428;28;20205;-66
2023/08/20 04:30:07;;;;;;;1.57;1.47;;;;;;;23.04;78.00;99522.97;5049296;28;20635;-66
2023/08/20 04:32:34;;;;;;;0.83;0.83;;;;;;;23.04;78.45;99527.41;5049741;28;20193;-66
2023/08/20 04:35:01;;;;;;;1.07;1.07;;;;;;;23.02;78.56;99525.72;5050321;28;20753;-66
2023/08/20 04:37:29;;;;;;;1.13;1.07;;;;;;;23.07;79.09;99527.16;5050114;28;20208;-66
2023/08/20 04:39:56;;;;;;;1.30;1.30;;;;;;;23.09;79.70;99522.63;5050069;28;20204;-66
2023/08/20 04:42:22;;;;;;;0.87;0.80;;;;;;;23.20;79.50;99530.47;5049131;28;20216;-66
2023/08/20 04:44:49;;;;;;;1.63;1.33;;;;;;;23.25;79.12;99530.91;5045907;28;20204;-66
2023/08/20 04:47:16;;;;;;;0.90;0.90;;;;;;;23.29;78.58;99537.56;5046310;28;20202;-66
2023/08/20 04:49:43;;;;;;;1.33;1.23;;;;;;;23.19;78.82;99513.09;5049548;28;20695;-66
2023/08/20 04:52:09;;;;;;;4.23;1.40;;;;;;;23.30;79.72;99524.34;5049539;28;20288;-67
2023/08/20 04:54:38;;;;;;;1.03;1.03;;;;;;;23.38;79.52;99535.03;5049619;28;20196;-66
2023/08/20 04:57:05;;;;;;;1.00;1.00;;;;;;;23.39;78.68;99520.19;5048323;28;20263;-67
2023/08/20 04:59:31;;;;;;;3.60;1.10;;;;;;;23.50;78.65;99535.84;5048077;28;20193;-67
2023/08/20 05:01:58;;;;;;;1.57;1.43;;;;;;;23.57;78.67;99534.41;5048867;28;20257;-66
2023/08/20 05:04:25;;;;;;;2.43;1.57;;;;;;;23.59;79.22;99537.72;5048624;28;20266;-66
2023/08/20 05:06:51;;;;;;;1.63;1.53;;;;;;;23.63;79.38;99539.13;5049893;28;20201;-66
2023/08/20 05:09:18;;;;;;;1.53;1.30;;;;;;;23.69;79.62;99546.47;5049262;28;20200;-66
2023/08/20 05:11:46;;;;;;;1.23;1.23;;;;;;;23.75;78.84;99540.75;5049683;28;20250;-66
2023/08/20 05:14:13;;;;;;;1.43;1.33;;;;;;;23.75;79.90;99545.97;5049629;28;20196;-66
2023/08/20 05:16:40;;;;;;;1.50;1.40;;;;;;;23.79;80.37;99542.16;5048988;28;20266;-66
2023/08/20 05:19:06;;;;;;;1.83;1.73;;;;;;;23.87;80.74;99545.00;5050184;28;20254;-66
2023/08/20 05:21:33;;;;;;;1.20;1.20;;;;;;;23.92;79.91;99545.44;5050095;28;20563;-67
2023/08/20 05:24:00;;;;;;;1.30;1.20;;;;;;;24.00;78.87;99550.88;5052481;28;20290;-67
2023/08/20 05:26:26;;;;;;;1.73;1.67;;;;;;;24.00;77.99;99550.03;5053946;28;20203;-67
2023/08/20 05:28:54;;;;;;;1.43;1.43;;;;;;;24.01;77.86;99539.41;5053758;28;20202;-67
2023/08/20 05:31:21;;;;;;;1.63;1.53;;;;;;;24.18;76.57;99558.16;5054311;28;20647;-67
2023/08/20 05:33:48;;;;;;;1.33;1.23;;;;;;;24.27;75.77;99560.00;5052444;28;20667;-66
2023/08/20 05:36:15;;;;;;;1.67;1.57;;;;;;;24.34;75.58;99558.53;5053006;28;20205;-66
2023/08/20 05:38:42;;;;;;;1.10;0.70;;;;;;;24.41;75.35;99557.06;5052136;28;20197;-67
2023/08/20 05:41:09;;;;;;;1.53;1.27;;;;;;;24.41;74.52;99541.34;5052141;28;20262;-67
2023/08/20 05:43:37;;;;;;;2.50;1.53;;;;;;;24.61;74.05;99560.63;5053198;28;20281;-67
2023/08/20 05:46:05;;;;;;;1.33;1.23;;;;;;;24.71;76.05;99570.19;5052708;28;20288;-66
2023/08/20 05:48:32;;;;;;;1.43;1.33;;;;;;;24.81;73.81;99560.59;5053327;28;20200;-67
2023/08/20 05:50:58;;;;;;;1.20;1.10;;;;;;;24.87;74.27;99557.47;5053095;28;20699;-66
2023/08/20 05:53:25;;;;;;;1.37;1.23;;;;;;;24.95;74.15;99555.00;5052954;28;20685;-67
2023/08/20 05:55:52;;;;;;;1.20;1.20;;;;;;;25.06;75.21;99551.44;5050499;28;20197;-66
2023/08/20 05:58:19;;;;;;;1.67;1.57;;;;;;;25.19;73.57;99556.44;5050651;28;20213;-67
2023/08/20 06:00:46;;;;;;;5.17;1.40;;;;;;;25.30;72.51;99564.22;5048664;28;20278;-66
2023/08/20 06:03:14;;;;;;;1.33;1.23;;;;;;;25.38;74.37;99553.84;5048831;28;20300;-66
2023/08/20 06:05:41;;;;;;;8.13;2.13;;;;;;;25.50;74.62;99552.78;5048138;28;20212;-66
2023/08/20 06:08:08;;;;;;;1.80;1.70;;;;;;;25.60;72.23;99556.25;5047236;28;20681;-68
2023/08/20 06:10:34;;;;;;;1.63;1.40;;;;;;;25.68;70.72;99553.78;5046485;28;20216;-67
2023/08/20 06:13:01;;;;;;;1.10;1.10;;;;;;;25.76;67.57;99564.41;5051154;28;20192;-67
2023/08/20 06:15:28;;;;;;;1.40;1.27;;;;;;;25.74;68.27;99553.22;5051319;28;20200;-67
2023/08/20 06:17:54;;;;;;;1.20;1.20;;;;;;;25.84;68.72;99575.06;5048556;28;20263;-67
2023/08/20 06:20:22;;;;;;;3.13;1.40;;;;;;;25.91;69.36;99575.34;5048664;28;20196;-66
2023/08/20 06:22:49;;;;;;;4.90;1.77;;;;;;;26.02;67.51;99578.63;5051452;28;20220;-67
2023/08/20 06:25:16;;;;;;;1.43;1.33;;;;;;;26.11;67.06;99577.78;5050965;28;20589;-66
2023/08/20 06:27:43;;;;;;;1.20;1.10;;;;;;;26.22;67.25;99573.38;5051395;28;20201;-66
2023/08/20 06:30:10;;;;;;;1.60;1.50;;;;;;;26.39;66.34;99584.00;5051058;28;20205;-66
2023/08/20 06:32:37;;;;;;;2.70;1.10;;;;;;;26.50;70.93;99583.00;5051229;28;20250;-66
2023/08/20 06:35:04;;;;;;;1.83;1.20;;;;;;;26.68;68.34;99583.94;5050865;28;20521;-67
2023/08/20 06:37:32;;;;;;;2.30;1.97;;;;;;;26.84;64.84;99586.81;5049841;28;20741;-66
2023/08/20 06:39:59;;;;;;;5.80;1.53;;;;;;;26.97;65.85;99582.03;5052567;28;20248;-67
2023/08/20 06:42:26;;;;;;;1.67;1.50;;;;;;;27.14;63.97;99575.97;5052021;28;20201;-66
2023/08/20 06:44:53;;;;;;;1.47;1.37;;;;;;;27.32;66.06;99575.19;5052558;28;20193;-66
2023/08/20 06:47:19;;;;;;;1.10;1.10;;;;;;;27.55;64.78;99581.72;5052826;28;20197;-66
2023/08/20 06:49:46;;;;;;;1.63;1.50;;;;;;;27.75;62.96;99577.97;5052948;28;20207;-67
2023/08/20 06:52:13;;;;;;;2.00;1.80;;;;;;;27.89;59.97;99579.22;5052658;28;20270;-66
2023/08/20 06:54:41;;;;;;;1.47;1.37;;;;;;;27.98;59.68;99579.13;5052689;28;20266;-66
2023/08/20 06:57:08;;;;;;;2.27;2.07;;;;;;;28.11;63.60;99584.06;5052671;28;20205;-67
2023/08/20 06:59:34;;;;;;;1.90;1.70;;;;;;;28.26;61.50;99582.53;5052656;28;20258;-66
2023/08/20 07:02:01;;;;;;;1.30;1.20;;;;;;;28.39;60.03;99576.84;5052580;28;20266;-67
2023/08/20 07:04:28;;;;;;;2.73;1.40;;;;;;;28.44;58.85;99585.09;5052402;28;20220;-66
2023/08/20 07:06:54;;;;;;;1.40;1.40;;;;;;;28.44;59.24;99585.09;5052305;28;20200;-66
2023/08/20 07:09:21;;;;;;;1.43;1.40;;;;;;;28.42;57.72;99592.34;5052215;28;20281;-66
2023/08/20 07:11:49;;;;;;;1.37;1.27;;;;;;;28.45;58.34;99581.50;5052344;28;20200;-66
2023/08/20 07:14:16;;;;;;;1.20;1.20;;;;;;;28.61;57.72;99584.22;5051792;28;20209;-67
2023/08/20 07:16:43;;;;;;;2.73;2.20;;;;;;;28.74;56.61;99565.34;5052128;28;20203;-67
2023/08/20 07:19:10;;;;;;;1.75;1.40;;;;;;;29.14;57.86;99584.03;5051990;28;20197;-67
2023/08/20 07:21:37;;;;;;;1.50;1.40;;;;;;;29.41;57.43;99582.94;5051338;28;20197;-67
2023/08/20 07:24:04;;;;;;;1.92;1.83;;;;;;;29.67;53.54;99586.31;5051933;28;20224;-67
2023/08/20 07:26:31;;;;;;;2.53;1.65;;;;;;;29.91;54.52;99589.00;5051601;28;20255;-66
2023/08/20 07:28:58;;;;;;;1.27;1.25;;;;;;;30.12;51.82;99583.22;5051884;28;20192;-67
2023/08/20 07:31:25;;;;;;;1.90;1.48;;;;;;;30.36;49.02;99587.66;5051862;28;20279;-68
2023/08/20 07:33:53;;;;;;;1.83;1.73;;;;;;;30.53;52.75;99584.03;5051684;28;20593;-67
2023/08/20 07:36:21;;;;;;;2.47;1.67;;;;;;;30.78;54.45;99582.97;5051941;28;20196;-68
2023/08/20 07:38:48;;;;;;;1.63;1.52;;;;;;;30.90;48.82;99586.03;5051619;28;20201;-66
2023/08/20 07:41:16;;;;;;;1.52;1.52;;;;;;;31.02;47.92;99595.31;5051936;28;20611;-67
2023/08/20 07:43:43;;;;;;;1.75;1.65;;;;;;;31.21;50.98;99581.66;5051034;28;20238;-67
2023/08/20 07:46:12;;;;;;;2.20;2.00;;;;;;;31.33;49.18;99558.22;5051463;28;20581;-67
2023/08/20 07:48:39;;;;;;;1.83;1.33;;;;;;;31.70;46.44;99579.53;5051624;28;20193;-66
2023/08/20 07:51:06;;;;;;;1.45;1.23;;;;;;;31.82;46.94;99578.13;5051217;28;20196;-67
2023/08/20 07:53:34;;;;;;;1.45;1.35;;;;;;;31.78;46.83;99560.09;5051659;28;20623;-67
2023/08/20 07:56:01;;;;;;;1.38;1.38;;;;;;;32.04;49.42;99577.31;5051272;28;20205;-67
2023/08/20 07:58:29;;;;;;;1.52;1.42;;;;;;;32.11;48.18;99577.44;5051454;28;20259;-67
2023/08/20 08:00:56;;;;;;;1.77;1.52;;;;;;;32.21;45.73;99580.66;5051322;28;20266;-67
2023/08/20 08:03:26;;;;;;;1.40;1.30;;;;;;;32.40;46.77;99581.97;5051342;28;20225;-67
2023/08/20 08:05:53;;;;;;;1.77;1.67;;;;;;;32.39;46.40;99577.63;5051035;28;20197;-67
2023/08/20 08:08:21;;;;;;;1.67;1.58;;;;;;;32.56;47.19;99571.16;5051379;28;20207;-67
2023/08/20 08:10:48;;;;;;;1.10;1.10;;;;;;;32.62;44.99;99576.59;5051162;28;20196;-67
2023/08/20 08:13:17;;;;;;;1.65;1.42;;;;;;;32.77;45.05;99565.97;5051388;28;20270;-67
2023/08/20 08:15:43;;;;;;;1.40;1.30;;;;;;;32.47;42.86;99572.25;5051294;28;20558;-67
2023/08/20 08:18:10;;;;;;;4.20;1.42;;;;;;;32.55;43.17;99569.50;5050917;28;20201;-67
2023/08/20 08:20:39;;;;;;;1.33;1.20;;;;;;;32.64;44.88;99563.94;5051114;28;20250;-67
2023/08/20 08:23:05;;;;;;;1.90;1.40;;;;;;;32.72;43.55;99568.34;5050159;28;20228;-66
2023/08/20 08:25:32;;;;;;;1.42;1.20;;;;;;;32.87;44.77;99569.16;5050855;28;20204;-67
2023/08/20 08:27:59;;;;;;;1.20;1.10;;;;;;;32.60;43.33;99575.13;5051074;28;20200;-68
2023/08/20 08:30:25;;;;;;;1.00;1.00;;;;;;;32.66;43.66;99571.75;5050914;28;20638;-67
2023/08/20 08:32:52;;;;;;;1.23;1.13;;;;;;;32.92;45.42;99574.75;5050653;28;20270;-67
2023/08/20 08:35:20;;;;;;;1.05;1.05;;;;;;;32.98;41.20;99571.34;5050621;28;20196;-66
2023/08/20 08:37:48;;;;;;;5.05;1.05;;;;;;;33.06;41.19;99565.09;5050848;28;20250;-67
2023/08/20 08:40:15;;;;;;;1.13;1.10;;;;;;;33.15;41.09;99566.69;5050830;28;20204;-67
2023/08/20 08:42:43;;;;;;;4.60;1.02;;;;;;;33.28;41.73;99567.66;5050954;28;20570;-67
2023/08/20 08:45:10;;;;;;;2.53;1.10;;;;;;;33.19;40.57;99559.97;5050389;28;20252;-67
2023/08/20 08:47:38;;;;;;;1.90;1.30;;;;;;;33.17;40.55;99565.50;5051278;28;20231;-67
2023/08/20 08:50:06;;;;;;;0.77;0.77;;;;;;;33.21;40.64;99564.13;5050801;28;20204;-67
2023/08/20 08:52:33;;;;;;;1.45;1.08;;;;;;;33.22;41.19;99563.09;5050611;28;20247;-67
2023/08/20 08:55:01;;;;;;;0.65;0.65;;;;;;;33.32;40.21;99567.25;5050639;28;20188;-67
2023/08/20 08:57:28;;;;;;;0.90;0.90;;;;;;;33.15;39.16;99561.38;5051420;28;20200;-67
2023/08/20 08:59:54;;;;;;;1.05;1.05;;;;;;;33.23;40.61;99564.75;5054481;28;20201;-67
2023/08/20 09:02:23;;;;;;;0.73;0.73;;;;;;;33.32;39.53;99559.28;5054501;28;20258;-67
2023/08/20 09:04:49;;;;;;;1.00;1.00;;;;;;;33.44;39.57;99560.47;5054621;28;20229;-67
2023/08/20 09:07:16;;;;;;;1.00;1.00;;;;;;;33.45;39.18;99559.44;5054677;28;20204;-67
2023/08/20 09:09:44;;;;;;;1.85;1.40;;;;;;;33.40;38.68;99556.53;5054798;28;20270;-67
2023/08/20 09:12:16;;;;;;;1.10;0.90;;;;;;;33.64;41.70;99553.50;5054367;28;20291;-67
2023/08/20 09:14:47;;;;;;;1.40;1.30;;;;;;;33.85;42.94;99548.19;5054583;28;20188;-67
2023/08/20 09:17:15;;;;;;;0.88;0.82;;;;;;;33.82;38.36;99550.41;5054767;28;20639;-67
2023/08/20 09:19:44;;;;;;;1.40;1.40;;;;;;;33.86;40.08;99544.53;5054264;28;20635;-66
2023/08/20 09:22:12;;;;;;;2.75;1.40;;;;;;;33.94;43.28;99539.06;5054283;28;20221;-67
2023/08/20 09:24:42;;;;;;;1.00;1.00;;;;;;;33.92;36.14;99549.09;5054152;28;20290;-70
2023/08/20 09:27:09;;;;;;;1.08;1.08;;;;;;;33.53;36.04;99549.53;5054306;28;20573;-69
2023/08/20 09:29:45;;;;;;;1.00;1.00;;;;;;;33.53;37.38;99532.75;5054128;28;20201;-67
2023/08/20 09:32:15;;;;;;;1.35;0.93;;;;;;;33.67;38.27;99539.84;5053926;28;20232;-67
2023/08/20 09:34:42;;;;;;;1.08;1.08;;;;;;;33.92;37.34;99543.75;5054259;28;20196;-67
2023/08/20 09:37:10;;;;;;;1.23;1.23;;;;;;;34.14;36.27;99542.75;5054143;28;20238;-66
2023/08/20 09:39:37;;;;;;;1.05;1.05;;;;;;;34.31;34.91;99547.75;5053651;28;20197;-66
2023/08/20 09:42:05;;;;;;;0.82;0.82;;;;;;;34.50;35.88;99536.41;5054058;28;20205;-67
2023/08/20 09:44:36;;;;;;;4.15;1.38;;;;;;;34.70;36.09;99532.84;5053799;28;20304;-67
2023/08/20 09:47:08;;;;;;;0.70;0.70;;;;;;;34.73;35.29;99531.66;5054106;28;20283;-67
2023/08/20 09:49:38;;;;;;;1.02;1.02;;;;;;;34.71;36.03;99528.34;5054030;28;20205;-67
2023/08/20 09:52:08;;;;;;;1.10;1.10;;;;;;;34.71;36.50;99528.34;5053902;28;20201;-67
2023/08/20 09:54:43;;;;;;;1.00;1.00;;;;;;;34.60;34.68;99516.44;5053533;28;20189;-68
2023/08/20 09:57:18;;;;;;;1.58;1.00;;;;;;;34.54;35.71;99516.38;5053940;28;20627;-67
2023/08/20 09:59:47;;;;;;;0.90;0.90;;;;;;;34.67;36.44;99519.91;5053735;28;20744;-67
2023/08/20 10:02:15;;;;;;;1.17;0.85;;;;;;;34.77;35.19;99527.53;5053722;28;20338;-67
2023/08/20 10:04:43;;;;;;;1.00;1.00;;;;;;;34.76;35.27;99531.25;5053358;28;20219;-68
2023/08/20 10:07:12;;;;;;;0.93;0.93;;;;;;;34.77;34.33;99523.03;5053583;28;20201;-67
2023/08/20 10:09:40;;;;;;;0.77;0.77;;;;;;;34.91;38.88;99517.78;5053203;28;20274;-66
2023/08/20 10:12:08;;;;;;;2.05;0.70;;;;;;;34.91;33.89;99523.91;5053525;28;20201;-68
2023/08/20 10:14:35;;;;;;;1.83;1.60;;;;;;;34.75;35.14;99502.97;5053556;28;20201;-67
2023/08/20 10:17:07;;;;;;;0.80;0.80;;;;;;;34.60;35.20;99516.44;5053166;28;20254;-66
2023/08/20 10:19:37;;;;;;;1.88;0.90;;;;;;;34.71;35.74;99517.69;5053471;28;20243;-67
2023/08/20 10:22:04;;;;;;;0.80;0.77;;;;;;;34.85;36.58;99506.06;5053127;28;20232;-67
2023/08/20 10:24:41;;;;;;;1.00;1.00;;;;;;;35.04;34.55;99501.81;5053103;28;20229;-67
2023/08/20 10:27:10;;;;;;;1.95;1.02;;;;;;;35.13;34.33;99490.81;5053309;28;20201;-67
2023/08/20 10:29:38;;;;;;;0.90;0.90;;;;;;;35.21;33.90;99495.97;5053154;28;20205;-67
2023/08/20 10:32:07;;;;;;;0.90;0.90;;;;;;;35.16;33.86;99487.75;5053106;28;20246;-67
2023/08/20 10:34:38;;;;;;;0.80;0.80;;;;;;;35.38;33.74;99487.59;5053131;28;20259;-67
2023/08/20 10:37:10;;;;;;;1.30;1.30;;;;;;;35.54;37.14;99489.84;5052323;28;20204;-67
2023/08/20 10:39:37;;;;;;;0.80;0.80;;;;;;;35.53;33.49;99485.53;5053056;28;20274;-67
2023/08/20 10:42:23;;;;;;;0.88;0.80;;;;;;;35.65;38.13;99492.75;5052888;28;20196;-66
2023/08/20 10:45:03;;;;;;;1.13;0.77;;;;;;;35.66;36.64;99472.25;5052693;28;20274;-67
2023/08/20 10:47:44;;;;;;;1.30;1.20;;;;;;;35.80;32.72;99481.88;5050845;28;20714;-68
2023/08/20 10:50:16;;;;;;;1.05;0.90;;;;;;;35.58;31.86;99477.72;5052682;28;20287;-67
2023/08/20 10:52:48;;;;;;;0.73;0.73;;;;;;;35.68;33.19;99479.00;5052971;28;20258;-67
2023/08/20 10:55:15;;;;;;;0.90;0.90;;;;;;;35.71;33.17;99473.25;5048622;28;20246;-67
2023/08/20 10:57:42;;;;;;;0.90;0.90;;;;;;;35.83;32.83;99465.47;5052655;28;20208;-67
2023/08/20 11:00:11;;;;;;;3.22;1.00;;;;;;;35.69;33.79;99463.81;5052373;28;20196;-68
2023/08/20 11:02:38;;;;;;;0.75;0.75;;;;;;;35.59;33.56;99452.75;5052624;28;20200;-68
2023/08/20 11:05:16;;;;;;;1.00;1.00;;;;;;;35.57;33.59;99450.25;5052259;28;20224;-68
2023/08/20 11:07:47;;;;;;;1.60;0.93;;;;;;;35.64;35.04;99463.63;5052394;28;20200;-68
2023/08/20 11:10:14;;;;;;;1.30;1.30;;;;;;;35.41;33.42;99460.50;5052453;28;20674;-67
2023/08/20 11:12:41;;;;;;;4.10;0.93;;;;;;;35.53;34.82;99453.53;5052150;28;20209;-67
2023/08/20 11:15:10;;;;;;;1.13;1.02;;;;;;;35.64;34.41;99451.09;5052127;28;20193;-67
2023/08/20 11:17:42;;;;;;;0.93;0.93;;;;;;;35.80;33.47;99444.53;5052228;28;20243;-67
2023/08/20 11:20:11;;;;;;;0.98;0.98;;;;;;;35.69;33.95;99445.97;5051539;28;20287;-66
2023/08/20 11:22:37;;;;;;;1.17;1.17;;;;;;;35.51;33.00;99439.59;5052199;28;20685;-67
2023/08/20 11:25:06;;;;;;;0.80;0.80;;;;;;;35.69;33.74;99437.97;5052151;28;20221;-66
2023/08/20 11:27:33;;;;;;;1.70;0.90;;;;;;;35.81;34.08;99436.31;5052431;28;20205;-67
2023/08/20 11:30:00;;;;;;;1.02;1.02;;;;;;;35.90;33.84;99439.56;5052080;28;20739;-68
2023/08/20 11:32:26;;;;;;;0.73;0.70;;;;;;;35.75;32.31;99436.31;5051366;28;20250;-66
2023/08/20 11:34:54;;;;;;;0.80;0.80;;;;;;;35.85;32.78;99431.38;5050176;28;20192;-67
2023/08/20 11:37:22;;;;;;;0.80;0.80;;;;;;;35.96;34.13;99430.75;5051525;28;20288;-66